Prestwick, United Kingdom
Current Conditions -  °F | °C
As of 3:50 AM on Friday 31 Oct 2014 (Local Time) from EGPK Reporting Station
Broken Clouds Broken Clouds  
Wind Chill: 59°   Ceiling: 1200
Heat Index: 59°   Visibility: 6mi
Dew Point: 55°   Wind: 15mph
Humidity: 88%   Direction: 170°S
Pressure: 29.77"   Gusts: NA
Location:  55.48°N, 4.62°W
Report Text: EGPK 310350Z 17013KT 9999 BKN012 15/13 Q1008
Loading
Personal Weather Stations






























Interactive Weather Map New forecast layout! Learn more

10-Day Weather Forecast

Advertisements
Track Severe Weather on mobile